Nabq, Egypt
Current Conditions -  °F | °C
As of 1:00 AM on Sunday 26 Oct 2014 (Local Time) from HESH Reporting Station
Clear Clear  
Wind Chill: 26°   Ceiling: Unl
Heat Index: 26°   Visibility: 6mi
Dew Point: 10°   Wind: 9mph
Humidity: 36%   Direction: 360°N
Pressure: 29.88"   Gusts: NA
Location:  28.07°N, 34.42°E
Report Text: HESH 252300Z 36008KT CAVOK 26/10 Q1012 NOSIG
Loading
Personal Weather Stations






























Interactive Weather Map
Tropical Storm Tracking
New forecast layout! Learn more

10-Day Weather Forecast

Advertisements
Track Severe Weather on mobile